sensor_id;sensor_type;location;lat;lon;timestamp;temperature;humidity
27978;DHT22;15314;49.248;6.968;2023-03-23T00:00:41;14.40;82.60
27978;DHT22;15314;49.248;6.968;2023-03-23T00:01:41;14.50;82.50
27978;DHT22;15314;49.248;6.968;2023-03-23T00:02:42;14.50;82.50
27978;DHT22;15314;49.248;6.968;2023-03-23T00:03:44;14.50;82.40
27978;DHT22;15314;49.248;6.968;2023-03-23T00:04:45;14.50;82.60
27978;DHT22;15314;49.248;6.968;2023-03-23T00:05:45;14.50;82.70
27978;DHT22;15314;49.248;6.968;2023-03-23T00:06:51;14.50;82.70
27978;DHT22;15314;49.248;6.968;2023-03-23T00:07:51;14.60;82.60
27978;DHT22;15314;49.248;6.968;2023-03-23T00:08:54;14.60;82.60
27978;DHT22;15314;49.248;6.968;2023-03-23T00:09:59;14.60;82.60
27978;DHT22;15314;49.248;6.968;2023-03-23T00:11:03;14.60;82.60
27978;DHT22;15314;49.248;6.968;2023-03-23T00:12:05;14.60;82.60
27978;DHT22;15314;49.248;6.968;2023-03-23T00:13:07;14.60;82.30
27978;DHT22;15314;49.248;6.968;2023-03-23T00:14:09;14.50;82.40
27978;DHT22;15314;49.248;6.968;2023-03-23T00:15:13;14.50;82.70
27978;DHT22;15314;49.248;6.968;2023-03-23T00:16:19;14.50;82.30
27978;DHT22;15314;49.248;6.968;2023-03-23T00:17:20;14.50;82.60
27978;DHT22;15314;49.248;6.968;2023-03-23T00:18:21;14.40;82.80
27978;DHT22;15314;49.248;6.968;2023-03-23T00:19:23;14.50;82.80
27978;DHT22;15314;49.248;6.968;2023-03-23T00:20:23;14.50;83.00
27978;DHT22;15314;49.248;6.968;2023-03-23T00:21:33;14.40;82.90
27978;DHT22;15314;49.248;6.968;2023-03-23T00:22:35;14.40;83.20
27978;DHT22;15314;49.248;6.968;2023-03-23T00:23:41;14.30;83.30
27978;DHT22;15314;49.248;6.968;2023-03-23T00:24:52;14.30;83.50
27978;DHT22;15314;49.248;6.968;2023-03-23T00:25:55;14.30;83.50
27978;DHT22;15314;49.248;6.968;2023-03-23T00:27:01;14.30;83.90
27978;DHT22;15314;49.248;6.968;2023-03-23T00:28:04;14.30;83.70
27978;DHT22;15314;49.248;6.968;2023-03-23T00:29:05;14.20;83.70
27978;DHT22;15314;49.248;6.968;2023-03-23T00:30:07;14.20;83.80
27978;DHT22;15314;49.248;6.968;2023-03-23T00:31:09;14.20;83.60
27978;DHT22;15314;49.248;6.968;2023-03-23T00:32:11;14.30;83.60
27978;DHT22;15314;49.248;6.968;2023-03-23T00:33:13;14.30;83.70
27978;DHT22;15314;49.248;6.968;2023-03-23T00:34:16;14.20;83.60
27978;DHT22;15314;49.248;6.968;2023-03-23T00:35:19;14.30;83.70
27978;DHT22;15314;49.248;6.968;2023-03-23T00:36:20;14.30;83.70
27978;DHT22;15314;49.248;6.968;2023-03-23T00:37:23;14.30;84.20
27978;DHT22;15314;49.248;6.968;2023-03-23T00:38:25;14.20;83.70
27978;DHT22;15314;49.248;6.968;2023-03-23T00:39:27;14.20;83.80
27978;DHT22;15314;49.248;6.968;2023-03-23T00:40:28;14.20;84.00
27978;DHT22;15314;49.248;6.968;2023-03-23T00:41:30;14.20;84.00
27978;DHT22;15314;49.248;6.968;2023-03-23T00:42:34;14.20;84.10
27978;DHT22;15314;49.248;6.968;2023-03-23T00:43:37;14.20;84.20
27978;DHT22;15314;49.248;6.968;2023-03-23T00:44:39;14.20;84.20
27978;DHT22;15314;49.248;6.968;2023-03-23T00:45:40;14.10;84.00
27978;DHT22;15314;49.248;6.968;2023-03-23T00:46:40;14.10;84.10
27978;DHT22;15314;49.248;6.968;2023-03-23T00:47:45;14.10;84.30
27978;DHT22;15314;49.248;6.968;2023-03-23T00:48:47;14.10;84.00
27978;DHT22;15314;49.248;6.968;2023-03-23T00:49:47;14.10;84.00
27978;DHT22;15314;49.248;6.968;2023-03-23T00:50:49;14.10;84.20
27978;DHT22;15314;49.248;6.968;2023-03-23T00:51:52;14.10;84.20
27978;DHT22;15314;49.248;6.968;2023-03-23T00:52:53;14.10;84.50
27978;DHT22;15314;49.248;6.968;2023-03-23T00:53:57;14.00;84.50
27978;DHT22;15314;49.248;6.968;2023-03-23T00:54:57;14.10;84.40
27978;DHT22;15314;49.248;6.968;2023-03-23T00:55:58;14.10;84.40
27978;DHT22;15314;49.248;6.968;2023-03-23T00:56:59;14.10;84.30
27978;DHT22;15314;49.248;6.968;2023-03-23T00:58:01;14.10;84.50
27978;DHT22;15314;49.248;6.968;2023-03-23T00:59:02;14.10;84.20
27978;DHT22;15314;49.248;6.968;2023-03-23T01:00:03;14.10;84.40
27978;DHT22;15314;49.248;6.968;2023-03-23T01:01:10;14.10;84.30
27978;DHT22;15314;49.248;6.968;2023-03-23T01:02:10;14.10;84.30
27978;DHT22;15314;49.248;6.968;2023-03-23T01:03:11;14.10;84.30
27978;DHT22;15314;49.248;6.968;2023-03-23T01:04:18;14.10;84.40
27978;DHT22;15314;49.248;6.968;2023-03-23T01:05:20;14.10;84.30
27978;DHT22;15314;49.248;6.968;2023-03-23T01:06:21;14.00;84.30
27978;DHT22;15314;49.248;6.968;2023-03-23T01:07:22;14.10;84.40
27978;DHT22;15314;49.248;6.968;2023-03-23T01:08:25;14.10;84.40
27978;DHT22;15314;49.248;6.968;2023-03-23T01:09:26;14.00;84.40
27978;DHT22;15314;49.248;6.968;2023-03-23T01:10:27;14.00;84.40
27978;DHT22;15314;49.248;6.968;2023-03-23T01:11:29;14.00;84.30
27978;DHT22;15314;49.248;6.968;2023-03-23T01:12:29;14.00;84.50
27978;DHT22;15314;49.248;6.968;2023-03-23T01:13:30;14.00;84.80
27978;DHT22;15314;49.248;6.968;2023-03-23T01:14:31;14.00;85.10
27978;DHT22;15314;49.248;6.968;2023-03-23T01:15:32;14.00;85.40
27978;DHT22;15314;49.248;6.968;2023-03-23T01:16:33;14.00;85.70
27978;DHT22;15314;49.248;6.968;2023-03-23T01:17:33;14.00;85.70
27978;DHT22;15314;49.248;6.968;2023-03-23T01:18:34;14.00;85.80
27978;DHT22;15314;49.248;6.968;2023-03-23T01:19:37;14.00;86.10
27978;DHT22;15314;49.248;6.968;2023-03-23T01:20:38;13.90;85.70
27978;DHT22;15314;49.248;6.968;2023-03-23T01:21:39;13.90;86.40
27978;DHT22;15314;49.248;6.968;2023-03-23T01:22:40;13.90;86.00
27978;DHT22;15314;49.248;6.968;2023-03-23T01:23:42;13.90;86.20
27978;DHT22;15314;49.248;6.968;2023-03-23T01:24:43;13.80;86.70
27978;DHT22;15314;49.248;6.968;2023-03-23T01:25:44;13.80;86.60
27978;DHT22;15314;49.248;6.968;2023-03-23T01:26:45;13.80;86.40
27978;DHT22;15314;49.248;6.968;2023-03-23T01:27:47;13.80;86.30
27978;DHT22;15314;49.248;6.968;2023-03-23T01:28:48;13.90;86.10
27978;DHT22;15314;49.248;6.968;2023-03-23T01:29:49;13.80;86.50
27978;DHT22;15314;49.248;6.968;2023-03-23T01:30:50;13.80;86.50
27978;DHT22;15314;49.248;6.968;2023-03-23T01:31:51;13.80;86.70
27978;DHT22;15314;49.248;6.968;2023-03-23T01:32:53;13.80;86.70
27978;DHT22;15314;49.248;6.968;2023-03-23T01:33:55;13.70;86.80
27978;DHT22;15314;49.248;6.968;2023-03-23T01:34:57;13.70;87.00
27978;DHT22;15314;49.248;6.968;2023-03-23T01:36:01;13.70;87.30
27978;DHT22;15314;49.248;6.968;2023-03-23T01:37:02;13.70;87.60
27978;DHT22;15314;49.248;6.968;2023-03-23T01:38:03;13.80;87.80
27978;DHT22;15314;49.248;6.968;2023-03-23T01:39:05;13.80;87.80
27978;DHT22;15314;49.248;6.968;2023-03-23T01:40:06;13.80;88.00
27978;DHT22;15314;49.248;6.968;2023-03-23T01:41:07;13.80;88.10
27978;DHT22;15314;49.248;6.968;2023-03-23T01:42:09;13.80;88.30
27978;DHT22;15314;49.248;6.968;2023-03-23T01:43:14;13.80;88.60
27978;DHT22;15314;49.248;6.968;2023-03-23T01:46:20;13.80;88.90
27978;DHT22;15314;49.248;6.968;2023-03-23T01:47:24;13.80;88.80
27978;DHT22;15314;49.248;6.968;2023-03-23T01:48:30;13.80;88.80
27978;DHT22;15314;49.248;6.968;2023-03-23T01:49:36;13.80;88.60
27978;DHT22;15314;49.248;6.968;2023-03-23T01:50:53;13.80;89.10
27978;DHT22;15314;49.248;6.968;2023-03-23T01:51:58;13.80;89.10
27978;DHT22;15314;49.248;6.968;2023-03-23T01:53:01;13.80;89.30
27978;DHT22;15314;49.248;6.968;2023-03-23T01:54:05;13.80;89.50
27978;DHT22;15314;49.248;6.968;2023-03-23T01:55:07;13.80;89.50
27978;DHT22;15314;49.248;6.968;2023-03-23T01:56:09;13.70;89.40
27978;DHT22;15314;49.248;6.968;2023-03-23T01:57:15;13.60;89.40
27978;DHT22;15314;49.248;6.968;2023-03-23T01:58:19;13.70;89.10
27978;DHT22;15314;49.248;6.968;2023-03-23T01:59:23;13.70;89.50
27978;DHT22;15314;49.248;6.968;2023-03-23T02:00:24;13.80;89.00
27978;DHT22;15314;49.248;6.968;2023-03-23T02:01:27;13.70;89.30
27978;DHT22;15314;49.248;6.968;2023-03-23T02:02:28;13.70;89.60
27978;DHT22;15314;49.248;6.968;2023-03-23T02:03:30;13.60;89.50
27978;DHT22;15314;49.248;6.968;2023-03-23T02:04:33;13.60;89.90
27978;DHT22;15314;49.248;6.968;2023-03-23T02:05:38;13.60;89.90
27978;DHT22;15314;49.248;6.968;2023-03-23T02:06:40;13.60;89.70
27978;DHT22;15314;49.248;6.968;2023-03-23T02:07:41;13.60;90.10
27978;DHT22;15314;49.248;6.968;2023-03-23T02:08:43;13.60;90.10
27978;DHT22;15314;49.248;6.968;2023-03-23T02:09:45;13.60;90.10
27978;DHT22;15314;49.248;6.968;2023-03-23T02:10:45;13.60;90.00
27978;DHT22;15314;49.248;6.968;2023-03-23T02:11:47;13.60;90.10
27978;DHT22;15314;49.248;6.968;2023-03-23T02:12:50;13.60;90.10
27978;DHT22;15314;49.248;6.968;2023-03-23T02:13:51;13.50;90.20
27978;DHT22;15314;49.248;6.968;2023-03-23T02:14:52;13.50;90.10
27978;DHT22;15314;49.248;6.968;2023-03-23T02:16:03;13.60;89.70
27978;DHT22;15314;49.248;6.968;2023-03-23T02:17:07;13.50;90.30
27978;DHT22;15314;49.248;6.968;2023-03-23T02:18:28;13.50;90.10
27978;DHT22;15314;49.248;6.968;2023-03-23T02:19:52;13.50;90.10
27978;DHT22;15314;49.248;6.968;2023-03-23T02:25:33;13.60;89.30
27978;DHT22;15314;49.248;6.968;2023-03-23T02:29:35;13.70;88.70
27978;DHT22;15314;49.248;6.968;2023-03-23T02:32:23;13.80;88.20
27978;DHT22;15314;49.248;6.968;2023-03-23T02:33:56;13.80;88.20
27978;DHT22;15314;49.248;6.968;2023-03-23T02:35:10;13.80;88.50
27978;DHT22;15314;49.248;6.968;2023-03-23T02:36:43;13.80;88.40
27978;DHT22;15314;49.248;6.968;2023-03-23T02:37:51;13.80;88.30
27978;DHT22;15314;49.248;6.968;2023-03-23T02:39:30;13.80;88.00
27978;DHT22;15314;49.248;6.968;2023-03-23T02:40:47;13.80;88.10
27978;DHT22;15314;49.248;6.968;2023-03-23T02:41:56;13.90;88.20
27978;DHT22;15314;49.248;6.968;2023-03-23T02:42:58;13.90;88.30
27978;DHT22;15314;49.248;6.968;2023-03-23T02:44:02;13.90;88.50
27978;DHT22;15314;49.248;6.968;2023-03-23T02:45:06;13.90;88.50
27978;DHT22;15314;49.248;6.968;2023-03-23T02:46:08;13.90;88.50
27978;DHT22;15314;49.248;6.968;2023-03-23T02:47:16;13.90;88.90
27978;DHT22;15314;49.248;6.968;2023-03-23T02:48:20;13.90;89.00
27978;DHT22;15314;49.248;6.968;2023-03-23T02:49:24;13.90;90.10
27978;DHT22;15314;49.248;6.968;2023-03-23T02:50:28;13.80;89.80
27978;DHT22;15314;49.248;6.968;2023-03-23T02:51:31;13.90;90.00
27978;DHT22;15314;49.248;6.968;2023-03-23T02:52:34;13.90;90.20
27978;DHT22;15314;49.248;6.968;2023-03-23T02:53:39;13.80;89.80
27978;DHT22;15314;49.248;6.968;2023-03-23T02:54:42;13.80;89.80
27978;DHT22;15314;49.248;6.968;2023-03-23T02:55:45;13.80;90.20
27978;DHT22;15314;49.248;6.968;2023-03-23T02:56:47;13.70;90.10
27978;DHT22;15314;49.248;6.968;2023-03-23T02:57:51;13.70;90.10
27978;DHT22;15314;49.248;6.968;2023-03-23T02:58:52;13.70;90.50
27978;DHT22;15314;49.248;6.968;2023-03-23T02:59:53;13.70;90.40
27978;DHT22;15314;49.248;6.968;2023-03-23T03:00:55;13.70;90.60
27978;DHT22;15314;49.248;6.968;2023-03-23T03:02:16;13.60;90.70
27978;DHT22;15314;49.248;6.968;2023-03-23T03:03:22;13.60;91.00
27978;DHT22;15314;49.248;6.968;2023-03-23T03:04:26;13.60;91.10
27978;DHT22;15314;49.248;6.968;2023-03-23T03:06:49;13.50;91.30
27978;DHT22;15314;49.248;6.968;2023-03-23T03:09:23;13.40;92.10
27978;DHT22;15314;49.248;6.968;2023-03-23T03:10:34;13.40;92.40
27978;DHT22;15314;49.248;6.968;2023-03-23T03:11:37;13.40;92.30
27978;DHT22;15314;49.248;6.968;2023-03-23T03:12:48;13.30;92.50
27978;DHT22;15314;49.248;6.968;2023-03-23T03:15:09;13.40;92.90
27978;DHT22;15314;49.248;6.968;2023-03-23T03:17:26;13.40;93.30
27978;DHT22;15314;49.248;6.968;2023-03-23T03:18:45;13.40;93.20
27978;DHT22;15314;49.248;6.968;2023-03-23T03:19:51;13.40;93.60
27978;DHT22;15314;49.248;6.968;2023-03-23T03:21:00;13.40;93.50
27978;DHT22;15314;49.248;6.968;2023-03-23T03:22:04;13.40;93.70
27978;DHT22;15314;49.248;6.968;2023-03-23T03:23:05;13.40;94.00
27978;DHT22;15314;49.248;6.968;2023-03-23T03:24:15;13.30;93.90
27978;DHT22;15314;49.248;6.968;2023-03-23T03:25:17;13.30;93.80
27978;DHT22;15314;49.248;6.968;2023-03-23T03:26:20;13.30;94.00
27978;DHT22;15314;49.248;6.968;2023-03-23T03:27:23;13.30;94.30
27978;DHT22;15314;49.248;6.968;2023-03-23T03:28:25;13.30;94.20
27978;DHT22;15314;49.248;6.968;2023-03-23T03:29:32;13.20;94.80
27978;DHT22;15314;49.248;6.968;2023-03-23T03:30:35;13.20;94.30
27978;DHT22;15314;49.248;6.968;2023-03-23T03:31:39;13.20;94.70
27978;DHT22;15314;49.248;6.968;2023-03-23T03:32:49;13.20;94.80
27978;DHT22;15314;49.248;6.968;2023-03-23T03:33:53;13.20;95.10
27978;DHT22;15314;49.248;6.968;2023-03-23T03:34:54;13.10;94.80
27978;DHT22;15314;49.248;6.968;2023-03-23T03:35:56;13.10;94.90
27978;DHT22;15314;49.248;6.968;2023-03-23T03:36:59;13.10;95.20
27978;DHT22;15314;49.248;6.968;2023-03-23T03:38:07;13.10;95.40
27978;DHT22;15314;49.248;6.968;2023-03-23T03:39:09;13.10;95.30
27978;DHT22;15314;49.248;6.968;2023-03-23T03:40:13;13.10;95.00
27978;DHT22;15314;49.248;6.968;2023-03-23T03:41:15;13.10;95.20
27978;DHT22;15314;49.248;6.968;2023-03-23T03:42:16;13.10;95.30
27978;DHT22;15314;49.248;6.968;2023-03-23T03:43:19;13.10;95.30
27978;DHT22;15314;49.248;6.968;2023-03-23T03:44:21;13.20;95.60
27978;DHT22;15314;49.248;6.968;2023-03-23T03:45:21;13.20;95.60
27978;DHT22;15314;49.248;6.968;2023-03-23T03:46:22;13.20;96.20
27978;DHT22;15314;49.248;6.968;2023-03-23T03:47:27;13.20;95.70
27978;DHT22;15314;49.248;6.968;2023-03-23T03:48:28;13.10;95.80
27978;DHT22;15314;49.248;6.968;2023-03-23T03:49:28;13.10;95.90
27978;DHT22;15314;49.248;6.968;2023-03-23T03:50:29;13.10;96.20
27978;DHT22;15314;49.248;6.968;2023-03-23T03:51:30;13.10;96.00
27978;DHT22;15314;49.248;6.968;2023-03-23T03:52:31;13.10;96.00
27978;DHT22;15314;49.248;6.968;2023-03-23T03:53:32;13.10;96.10
27978;DHT22;15314;49.248;6.968;2023-03-23T03:54:33;13.20;96.10
27978;DHT22;15314;49.248;6.968;2023-03-23T03:55:34;13.20;96.10
27978;DHT22;15314;49.248;6.968;2023-03-23T03:56:38;13.20;96.20
27978;DHT22;15314;49.248;6.968;2023-03-23T03:57:40;13.10;96.20
27978;DHT22;15314;49.248;6.968;2023-03-23T03:58:42;13.10;96.30
27978;DHT22;15314;49.248;6.968;2023-03-23T03:59:43;13.10;96.40
27978;DHT22;15314;49.248;6.968;2023-03-23T04:00:44;13.00;96.60
27978;DHT22;15314;49.248;6.968;2023-03-23T04:01:48;13.00;96.90
27978;DHT22;15314;49.248;6.968;2023-03-23T04:02:54;13.00;97.00
27978;DHT22;15314;49.248;6.968;2023-03-23T04:03:55;13.10;97.20
27978;DHT22;15314;49.248;6.968;2023-03-23T04:04:57;13.00;97.20
27978;DHT22;15314;49.248;6.968;2023-03-23T04:05:57;13.00;97.40
27978;DHT22;15314;49.248;6.968;2023-03-23T04:07:00;12.90;97.40
27978;DHT22;15314;49.248;6.968;2023-03-23T04:08:03;13.00;97.50
27978;DHT22;15314;49.248;6.968;2023-03-23T04:09:05;12.90;97.70
27978;DHT22;15314;49.248;6.968;2023-03-23T04:10:07;12.80;98.20
27978;DHT22;15314;49.248;6.968;2023-03-23T04:11:10;12.80;98.30
27978;DHT22;15314;49.248;6.968;2023-03-23T04:12:12;12.70;98.40
27978;DHT22;15314;49.248;6.968;2023-03-23T04:13:13;12.70;98.60
27978;DHT22;15314;49.248;6.968;2023-03-23T04:14:14;12.60;98.50
27978;DHT22;15314;49.248;6.968;2023-03-23T04:15:15;12.60;98.60
27978;DHT22;15314;49.248;6.968;2023-03-23T04:16:16;12.60;98.80
27978;DHT22;15314;49.248;6.968;2023-03-23T04:17:17;12.60;99.10
27978;DHT22;15314;49.248;6.968;2023-03-23T04:18:18;12.70;98.90
27978;DHT22;15314;49.248;6.968;2023-03-23T04:19:20;12.60;99.00
27978;DHT22;15314;49.248;6.968;2023-03-23T04:20:23;12.60;99.40
27978;DHT22;15314;49.248;6.968;2023-03-23T04:21:25;12.70;99.60
27978;DHT22;15314;49.248;6.968;2023-03-23T04:22:29;12.40;99.50
27978;DHT22;15314;49.248;6.968;2023-03-23T04:23:32;12.60;99.70
27978;DHT22;15314;49.248;6.968;2023-03-23T04:24:34;12.70;99.60
27978;DHT22;15314;49.248;6.968;2023-03-23T04:25:35;12.70;99.50
27978;DHT22;15314;49.248;6.968;2023-03-23T04:26:36;12.60;99.40
27978;DHT22;15314;49.248;6.968;2023-03-23T04:27:38;12.60;99.50
27978;DHT22;15314;49.248;6.968;2023-03-23T04:28:40;12.60;99.70
27978;DHT22;15314;49.248;6.968;2023-03-23T04:29:41;12.60;99.80
27978;DHT22;15314;49.248;6.968;2023-03-23T04:30:42;12.60;99.90
27978;DHT22;15314;49.248;6.968;2023-03-23T04:31:43;12.70;99.70
27978;DHT22;15314;49.248;6.968;2023-03-23T04:32:45;12.60;99.90
27978;DHT22;15314;49.248;6.968;2023-03-23T04:33:46;12.60;99.90
27978;DHT22;15314;49.248;6.968;2023-03-23T04:34:47;12.60;99.90
27978;DHT22;15314;49.248;6.968;2023-03-23T04:35:49;12.60;99.80
27978;DHT22;15314;49.248;6.968;2023-03-23T04:36:49;12.60;99.90
27978;DHT22;15314;49.248;6.968;2023-03-23T04:37:51;12.60;99.90
27978;DHT22;15314;49.248;6.968;2023-03-23T04:38:52;12.60;99.90
27978;DHT22;15314;49.248;6.968;2023-03-23T04:39:55;12.60;99.90
27978;DHT22;15314;49.248;6.968;2023-03-23T04:41:02;12.60;99.90
27978;DHT22;15314;49.248;6.968;2023-03-23T04:42:04;12.60;99.90
27978;DHT22;15314;49.248;6.968;2023-03-23T04:43:05;12.60;99.90
27978;DHT22;15314;49.248;6.968;2023-03-23T04:44:07;12.60;99.90
27978;DHT22;15314;49.248;6.968;2023-03-23T04:45:08;12.60;99.90
27978;DHT22;15314;49.248;6.968;2023-03-23T04:46:10;12.60;99.90
27978;DHT22;15314;49.248;6.968;2023-03-23T04:47:11;12.60;99.90
27978;DHT22;15314;49.248;6.968;2023-03-23T04:48:13;12.70;99.90
27978;DHT22;15314;49.248;6.968;2023-03-23T04:49:15;12.70;99.90
27978;DHT22;15314;49.248;6.968;2023-03-23T04:50:21;12.70;99.90
27978;DHT22;15314;49.248;6.968;2023-03-23T04:51:26;12.70;99.90
27978;DHT22;15314;49.248;6.968;2023-03-23T04:52:28;12.70;99.90
27978;DHT22;15314;49.248;6.968;2023-03-23T04:53:30;12.80;99.90
27978;DHT22;15314;49.248;6.968;2023-03-23T04:54:31;12.80;99.90
27978;DHT22;15314;49.248;6.968;2023-03-23T04:55:34;12.80;99.90
27978;DHT22;15314;49.248;6.968;2023-03-23T04:56:38;12.80;99.90
27978;DHT22;15314;49.248;6.968;2023-03-23T04:57:40;12.80;99.90
27978;DHT22;15314;49.248;6.968;2023-03-23T04:58:40;12.80;99.90
27978;DHT22;15314;49.248;6.968;2023-03-23T04:59:42;12.80;99.90
27978;DHT22;15314;49.248;6.968;2023-03-23T05:00:44;12.80;99.90
27978;DHT22;15314;49.248;6.968;2023-03-23T05:01:49;12.70;99.90
27978;DHT22;15314;49.248;6.968;2023-03-23T05:02:50;12.80;99.90
27978;DHT22;15314;49.248;6.968;2023-03-23T05:03:51;12.80;99.90
27978;DHT22;15314;49.248;6.968;2023-03-23T05:04:52;12.90;99.90
27978;DHT22;15314;49.248;6.968;2023-03-23T05:05:53;12.90;99.90
27978;DHT22;15314;49.248;6.968;2023-03-23T05:06:54;12.90;99.90
27978;DHT22;15314;49.248;6.968;2023-03-23T05:07:56;12.90;99.90
27978;DHT22;15314;49.248;6.968;2023-03-23T05:08:57;12.80;99.90
27978;DHT22;15314;49.248;6.968;2023-03-23T05:09:58;12.90;99.90
27978;DHT22;15314;49.248;6.968;2023-03-23T05:11:00;12.80;99.90
27978;DHT22;15314;49.248;6.968;2023-03-23T05:12:09;12.80;99.90
27978;DHT22;15314;49.248;6.968;2023-03-23T05:13:10;12.80;99.90
27978;DHT22;15314;49.248;6.968;2023-03-23T05:14:12;12.80;99.90
27978;DHT22;15314;49.248;6.968;2023-03-23T05:15:14;12.80;99.90
27978;DHT22;15314;49.248;6.968;2023-03-23T05:16:16;12.80;99.90
27978;DHT22;15314;49.248;6.968;2023-03-23T05:17:17;13.00;99.90
27978;DHT22;15314;49.248;6.968;2023-03-23T05:18:19;12.80;99.90
27978;DHT22;15314;49.248;6.968;2023-03-23T05:19:20;12.80;99.90
27978;DHT22;15314;49.248;6.968;2023-03-23T05:20:21;12.70;99.90
27978;DHT22;15314;49.248;6.968;2023-03-23T05:21:22;12.60;99.90
27978;DHT22;15314;49.248;6.968;2023-03-23T05:22:23;12.70;99.90
27978;DHT22;15314;49.248;6.968;2023-03-23T05:23:24;12.70;99.90
27978;DHT22;15314;49.248;6.968;2023-03-23T05:24:24;12.70;99.90
27978;DHT22;15314;49.248;6.968;2023-03-23T05:25:25;12.70;99.90
27978;DHT22;15314;49.248;6.968;2023-03-23T05:26:27;12.70;99.90
27978;DHT22;15314;49.248;6.968;2023-03-23T05:27:31;12.50;99.90
27978;DHT22;15314;49.248;6.968;2023-03-23T05:28:34;12.50;99.90
27978;DHT22;15314;49.248;6.968;2023-03-23T05:29:36;12.50;99.90
27978;DHT22;15314;49.248;6.968;2023-03-23T05:30:38;12.50;99.90
27978;DHT22;15314;49.248;6.968;2023-03-23T05:31:39;12.50;99.90
27978;DHT22;15314;49.248;6.968;2023-03-23T05:32:40;12.50;99.90
27978;DHT22;15314;49.248;6.968;2023-03-23T05:33:41;12.40;99.90
27978;DHT22;15314;49.248;6.968;2023-03-23T05:34:41;12.30;99.90
27978;DHT22;15314;49.248;6.968;2023-03-23T05:35:44;12.40;99.90
27978;DHT22;15314;49.248;6.968;2023-03-23T05:36:46;12.40;99.90
27978;DHT22;15314;49.248;6.968;2023-03-23T05:37:47;12.30;99.90
27978;DHT22;15314;49.248;6.968;2023-03-23T05:38:48;12.30;99.90
27978;DHT22;15314;49.248;6.968;2023-03-23T05:39:49;12.30;99.90
27978;DHT22;15314;49.248;6.968;2023-03-23T05:40:53;12.40;99.90
27978;DHT22;15314;49.248;6.968;2023-03-23T05:41:55;12.40;99.90
27978;DHT22;15314;49.248;6.968;2023-03-23T05:42:56;12.40;99.90
27978;DHT22;15314;49.248;6.968;2023-03-23T05:43:59;12.40;99.90
27978;DHT22;15314;49.248;6.968;2023-03-23T05:45:00;12.40;99.90
27978;DHT22;15314;49.248;6.968;2023-03-23T05:46:01;12.30;99.90
27978;DHT22;15314;49.248;6.968;2023-03-23T05:47:03;12.30;99.90
27978;DHT22;15314;49.248;6.968;2023-03-23T05:48:04;12.30;99.90
27978;DHT22;15314;49.248;6.968;2023-03-23T05:49:05;12.20;99.90
27978;DHT22;15314;49.248;6.968;2023-03-23T05:50:08;12.20;99.90
27978;DHT22;15314;49.248;6.968;2023-03-23T05:51:09;12.20;99.90
27978;DHT22;15314;49.248;6.968;2023-03-23T05:52:10;12.10;99.90
27978;DHT22;15314;49.248;6.968;2023-03-23T05:53:11;12.10;99.90
27978;DHT22;15314;49.248;6.968;2023-03-23T05:54:13;12.20;99.90
27978;DHT22;15314;49.248;6.968;2023-03-23T05:55:14;12.20;99.90
27978;DHT22;15314;49.248;6.968;2023-03-23T05:56:15;12.20;99.90
27978;DHT22;15314;49.248;6.968;2023-03-23T05:57:16;12.20;99.90
27978;DHT22;15314;49.248;6.968;2023-03-23T05:58:17;12.20;99.90
27978;DHT22;15314;49.248;6.968;2023-03-23T05:59:17;12.20;99.90
27978;DHT22;15314;49.248;6.968;2023-03-23T06:00:18;12.20;99.90
27978;DHT22;15314;49.248;6.968;2023-03-23T06:01:20;12.20;99.90
27978;DHT22;15314;49.248;6.968;2023-03-23T06:02:21;12.20;99.90
27978;DHT22;15314;49.248;6.968;2023-03-23T06:03:23;12.30;99.90
27978;DHT22;15314;49.248;6.968;2023-03-23T06:04:24;12.30;99.90
27978;DHT22;15314;49.248;6.968;2023-03-23T06:05:25;12.20;99.90
27978;DHT22;15314;49.248;6.968;2023-03-23T06:06:26;12.20;99.90
27978;DHT22;15314;49.248;6.968;2023-03-23T06:07:27;12.20;99.90
27978;DHT22;15314;49.248;6.968;2023-03-23T06:08:28;12.30;99.90
27978;DHT22;15314;49.248;6.968;2023-03-23T06:09:29;12.30;99.90
27978;DHT22;15314;49.248;6.968;2023-03-23T06:10:30;12.40;99.90
27978;DHT22;15314;49.248;6.968;2023-03-23T06:11:33;12.40;99.90
27978;DHT22;15314;49.248;6.968;2023-03-23T06:12:39;12.40;99.90
27978;DHT22;15314;49.248;6.968;2023-03-23T06:13:40;12.40;99.90
27978;DHT22;15314;49.248;6.968;2023-03-23T06:14:42;12.40;99.90
27978;DHT22;15314;49.248;6.968;2023-03-23T06:15:43;12.40;99.90
27978;DHT22;15314;49.248;6.968;2023-03-23T06:16:43;12.40;99.90
27978;DHT22;15314;49.248;6.968;2023-03-23T06:17:44;12.40;99.90
27978;DHT22;15314;49.248;6.968;2023-03-23T06:18:45;12.40;99.90
27978;DHT22;15314;49.248;6.968;2023-03-23T06:19:46;12.30;99.90
27978;DHT22;15314;49.248;6.968;2023-03-23T06:20:49;12.40;99.90
27978;DHT22;15314;49.248;6.968;2023-03-23T06:21:51;12.40;99.90
27978;DHT22;15314;49.248;6.968;2023-03-23T06:22:51;12.30;99.90
27978;DHT22;15314;49.248;6.968;2023-03-23T06:23:54;12.30;99.90
27978;DHT22;15314;49.248;6.968;2023-03-23T06:24:56;12.30;99.90
27978;DHT22;15314;49.248;6.968;2023-03-23T06:26:03;12.40;99.90
27978;DHT22;15314;49.248;6.968;2023-03-23T06:27:05;12.40;99.90
27978;DHT22;15314;49.248;6.968;2023-03-23T06:28:06;12.40;99.90
27978;DHT22;15314;49.248;6.968;2023-03-23T06:29:07;12.40;99.90
27978;DHT22;15314;49.248;6.968;2023-03-23T06:30:12;12.50;99.90
27978;DHT22;15314;49.248;6.968;2023-03-23T06:31:15;12.50;99.90
27978;DHT22;15314;49.248;6.968;2023-03-23T06:32:17;12.50;99.90
27978;DHT22;15314;49.248;6.968;2023-03-23T06:33:19;12.60;99.90
27978;DHT22;15314;49.248;6.968;2023-03-23T06:34:20;12.50;99.90
27978;DHT22;15314;49.248;6.968;2023-03-23T06:35:24;12.50;99.90
27978;DHT22;15314;49.248;6.968;2023-03-23T06:36:26;12.60;99.90
27978;DHT22;15314;49.248;6.968;2023-03-23T06:37:28;12.60;99.90
27978;DHT22;15314;49.248;6.968;2023-03-23T06:38:28;12.60;99.90
27978;DHT22;15314;49.248;6.968;2023-03-23T06:39:30;12.60;99.90
27978;DHT22;15314;49.248;6.968;2023-03-23T06:40:31;12.50;99.90
27978;DHT22;15314;49.248;6.968;2023-03-23T06:41:32;12.50;99.90
27978;DHT22;15314;49.248;6.968;2023-03-23T06:42:33;12.50;99.90
27978;DHT22;15314;49.248;6.968;2023-03-23T06:43:34;12.40;99.90
27978;DHT22;15314;49.248;6.968;2023-03-23T06:44:38;12.40;99.90
27978;DHT22;15314;49.248;6.968;2023-03-23T06:45:39;12.50;99.90
27978;DHT22;15314;49.248;6.968;2023-03-23T06:46:40;12.50;99.90
27978;DHT22;15314;49.248;6.968;2023-03-23T06:47:41;12.50;99.90
27978;DHT22;15314;49.248;6.968;2023-03-23T06:48:42;12.60;99.90
27978;DHT22;15314;49.248;6.968;2023-03-23T06:49:43;12.60;99.90
27978;DHT22;15314;49.248;6.968;2023-03-23T06:50:44;12.60;99.90
27978;DHT22;15314;49.248;6.968;2023-03-23T06:51:45;12.70;99.90
27978;DHT22;15314;49.248;6.968;2023-03-23T06:52:47;12.60;99.90
27978;DHT22;15314;49.248;6.968;2023-03-23T06:53:48;12.60;99.90